Western Neb. Rgnl/William B. Heilig Airport
KBFF : now visible

Airfield :











YOU CAN JOIN US ON...

 
LOGIN :

Register | Disclaimer

   EN    FR    IT 

 









Legend :    VFR   Marginal VFR   IFR   Intensive IFR   Very Intensive IFR
Visi :
Ceiling :
>= 8 km
>= 3000ft
5 to 8 km
1000 to 3000 ft
1500m to 5 km
500 to 1000 ft
800 to 1500m
200 to 500 ft
< 800m
< 200 ft
Symbols :   Thunderstorms  Fog  Heavy snow  Heavy precipitations  Wind > 20 kt







- Airport Elevation : 3967 ft
- IATA code : BFF


KBFF - Western Neb. Rgnl/William B. Heilig

CURRENT METAR :
  • 201953Z AUTO VRB04KT 10SM CLR 29/13 A2973 RMK AO2 SLP016 T02940133

EXPIRED METARs :
  • 201853Z AUTO 17008KT 10SM CLR 28/14 A2974 RMK AO2 SLP020 T02830139
  • 201753Z AUTO 16010KT 10SM CLR 26/14 A2976 RMK AO2 SLP029 T02610144 10261 20161 58012

TAF KBFF
Valid from the 20 at 18:00 until the 21 at 18:00 UTC


201720Z 2018/2118 15010KT P6SM SCT050
FM202300 18014KT 6SM -SHRA VCTS SCT050CB BKN070
FM210300 32012G20KT P6SM SCT200
No reported NOTAMs for that airfield.



MET'MAP, your aeronautical weather chart ! - Copyright ORBIFLY December 2007 - Disclaimer

ORBIFLY MET'MAP TEAM :

Programming & Development : Alexandra Zaïnal
Concept & Development : Baudouin d'Aumeries
Co-Development & Prog : Marc-Olivier Méhu
Technical & hardware support : Manuel Goepfert

Contact : metmap@orbifly.com




SOURCES & CREDITS :

   NOAA       Earth
Advisory